createdAt,value
2019-03-29T00:00:54.789Z,10.10
2019-03-29T00:03:24.377Z,10.00
2019-03-29T00:05:53.897Z,9.90
2019-03-29T00:08:23.574Z,9.80
2019-03-29T00:10:53.059Z,9.70
2019-03-29T00:13:23.191Z,9.70
2019-03-29T00:15:53.106Z,9.60
2019-03-29T00:18:22.576Z,9.50
2019-03-29T00:20:52.570Z,9.50
2019-03-29T00:23:23.003Z,9.40
2019-03-29T00:25:52.465Z,9.40
2019-03-29T00:28:22.374Z,9.30
2019-03-29T00:30:51.915Z,9.40
2019-03-29T00:33:21.509Z,9.40
2019-03-29T00:35:51.189Z,9.40
2019-03-29T00:38:20.670Z,9.40
2019-03-29T00:40:50.164Z,9.30
2019-03-29T00:43:19.637Z,9.20
2019-03-29T00:45:49.114Z,9.20
2019-03-29T00:48:18.598Z,9.20
2019-03-29T00:50:48.393Z,9.10
2019-03-29T00:53:18.445Z,9.00
2019-03-29T00:55:47.930Z,9.00
2019-03-29T00:58:17.463Z,8.80
2019-03-29T01:00:46.938Z,8.70
2019-03-29T01:03:16.937Z,8.70
2019-03-29T01:05:47.012Z,8.60
2019-03-29T01:08:16.888Z,8.60
2019-03-29T01:10:46.361Z,8.50
2019-03-29T01:13:16.389Z,8.40
2019-03-29T01:15:45.970Z,8.40
2019-03-29T01:18:15.572Z,8.40
2019-03-29T01:20:47.409Z,8.40
2019-03-29T01:23:17.586Z,8.30
2019-03-29T01:25:47.541Z,8.30
2019-03-29T01:28:17.141Z,8.20
2019-03-29T01:30:46.723Z,8.20
2019-03-29T01:33:16.225Z,8.20
2019-03-29T01:35:46.022Z,8.20
2019-03-29T01:38:21.786Z,8.10
2019-03-29T01:40:46.943Z,8.10
2019-03-29T01:43:16.497Z,8.10
2019-03-29T01:45:46.073Z,8.00
2019-03-29T01:48:15.593Z,7.90
2019-03-29T01:50:45.443Z,7.90
2019-03-29T01:53:15.208Z,7.80
2019-03-29T01:55:44.965Z,7.80
2019-03-29T01:58:14.349Z,7.80
2019-03-29T02:00:43.846Z,7.70
2019-03-29T02:03:13.415Z,7.70
2019-03-29T02:05:42.847Z,7.80
2019-03-29T02:08:12.369Z,7.80
2019-03-29T02:10:42.161Z,7.70
2019-03-29T02:13:11.723Z,7.70
2019-03-29T02:15:41.569Z,7.70
2019-03-29T02:18:11.030Z,7.60
2019-03-29T02:20:40.602Z,7.60
2019-03-29T02:23:10.056Z,7.50
2019-03-29T02:25:39.508Z,7.50
2019-03-29T02:28:09.464Z,7.60
2019-03-29T02:30:39.026Z,7.50
2019-03-29T02:33:08.513Z,7.40
2019-03-29T02:35:38.967Z,7.40
2019-03-29T02:38:08.574Z,7.40
2019-03-29T02:40:38.562Z,7.40
2019-03-29T02:43:08.129Z,7.40
2019-03-29T02:45:37.728Z,7.30
2019-03-29T02:48:07.221Z,7.30
2019-03-29T02:50:36.841Z,7.20
2019-03-29T02:53:06.777Z,7.30
2019-03-29T02:55:36.621Z,7.30
2019-03-29T02:58:06.166Z,7.30
2019-03-29T03:00:36.200Z,7.30
2019-03-29T03:03:05.706Z,7.20
2019-03-29T03:05:36.508Z,7.20
2019-03-29T03:08:06.396Z,7.10
2019-03-29T03:10:36.288Z,7.20
2019-03-29T03:13:05.945Z,7.10
2019-03-29T03:15:35.491Z,7.10
2019-03-29T03:18:05.262Z,7.00
2019-03-29T03:20:34.856Z,7.00
2019-03-29T03:23:04.411Z,7.00
2019-03-29T03:25:33.956Z,7.00
2019-03-29T03:28:03.564Z,7.00
2019-03-29T03:30:33.384Z,6.90
2019-03-29T03:33:03.260Z,6.80
2019-03-29T03:35:32.730Z,6.70
2019-03-29T03:38:02.475Z,6.70
2019-03-29T03:40:31.945Z,6.70
2019-03-29T03:43:02.837Z,6.70
2019-03-29T03:45:32.410Z,6.60
2019-03-29T03:48:01.885Z,6.60
2019-03-29T03:50:40.804Z,6.60
2019-03-29T03:53:11.079Z,6.60
2019-03-29T03:55:41.437Z,6.60
2019-03-29T03:58:12.108Z,6.50
2019-03-29T04:00:57.249Z,6.50
2019-03-29T04:03:27.264Z,6.50
2019-03-29T04:05:57.316Z,6.60
2019-03-29T04:08:27.253Z,6.60
2019-03-29T04:10:57.274Z,6.60
2019-03-29T04:13:27.472Z,6.60
2019-03-29T04:15:57.387Z,6.60
2019-03-29T04:18:26.758Z,6.60
2019-03-29T04:20:56.310Z,6.60
2019-03-29T04:23:26.260Z,6.50
2019-03-29T04:25:55.810Z,6.50
2019-03-29T04:28:25.324Z,6.40
2019-03-29T04:30:55.353Z,6.30
2019-03-29T04:33:24.887Z,6.20
2019-03-29T04:35:54.417Z,6.20
2019-03-29T04:38:23.878Z,6.20
2019-03-29T04:40:53.257Z,6.30
2019-03-29T04:43:22.727Z,6.20
2019-03-29T04:45:52.165Z,6.20
2019-03-29T04:48:21.630Z,6.20
2019-03-29T04:50:51.657Z,6.20
2019-03-29T04:53:21.398Z,6.30
2019-03-29T04:55:50.878Z,6.40
2019-03-29T04:58:20.446Z,6.40
2019-03-29T05:00:49.834Z,6.40
2019-03-29T05:03:19.302Z,6.50
2019-03-29T05:05:49.052Z,6.50
2019-03-29T05:08:18.510Z,6.40
2019-03-29T05:10:48.224Z,6.40
2019-03-29T05:13:17.749Z,6.30
2019-03-29T05:15:47.283Z,6.30
2019-03-29T05:18:16.740Z,6.20
2019-03-29T05:20:46.144Z,6.20
2019-03-29T05:23:16.235Z,6.20
2019-03-29T05:25:45.680Z,6.20
2019-03-29T05:28:15.689Z,6.20
2019-03-29T05:30:46.029Z,6.20
2019-03-29T05:33:15.595Z,6.20
2019-03-29T05:35:45.063Z,6.20
2019-03-29T05:38:14.808Z,6.30
2019-03-29T05:40:44.388Z,6.40
2019-03-29T05:43:13.997Z,6.50
2019-03-29T05:45:43.449Z,6.50
2019-03-29T05:48:12.915Z,6.40
2019-03-29T05:50:42.737Z,6.40
2019-03-29T05:53:12.200Z,6.40
2019-03-29T05:55:41.654Z,6.40
2019-03-29T05:58:11.202Z,6.40
2019-03-29T06:00:40.962Z,6.40
2019-03-29T06:03:10.627Z,6.50
2019-03-29T06:05:40.359Z,6.50
2019-03-29T06:08:09.922Z,6.70
2019-03-29T06:10:48.755Z,6.70
2019-03-29T06:13:10.627Z,6.80
2019-03-29T06:15:40.153Z,7.90
2019-03-29T06:18:09.609Z,8.20
2019-03-29T06:20:39.060Z,8.50
2019-03-29T06:23:08.610Z,8.90
2019-03-29T06:25:38.252Z,8.40
2019-03-29T06:28:08.081Z,8.50
2019-03-29T06:30:37.844Z,8.20
2019-03-29T06:33:07.661Z,8.10
2019-03-29T06:35:40.351Z,8.20
2019-03-29T06:38:10.824Z,8.70
2019-03-29T06:40:40.299Z,8.60
2019-03-29T06:43:09.780Z,8.50
2019-03-29T06:45:47.826Z,8.50
2019-03-29T06:48:10.418Z,8.50
2019-03-29T06:50:39.873Z,8.80
2019-03-29T06:53:09.617Z,8.90
2019-03-29T06:55:39.014Z,8.70
2019-03-29T06:58:08.545Z,8.50
2019-03-29T07:00:38.017Z,8.90
2019-03-29T07:03:07.487Z,9.10
2019-03-29T07:05:36.921Z,9.40
2019-03-29T07:08:06.377Z,9.20
2019-03-29T07:10:35.849Z,9.40
2019-03-29T07:13:05.407Z,9.60
2019-03-29T07:15:34.901Z,9.90
2019-03-29T07:18:04.800Z,10.10
2019-03-29T07:20:34.326Z,10.00
2019-03-29T07:23:03.754Z,10.40
2019-03-29T07:25:33.248Z,10.10
2019-03-29T07:28:02.729Z,10.10
2019-03-29T07:30:32.279Z,10.10
2019-03-29T07:33:01.654Z,10.20
2019-03-29T07:35:31.121Z,10.20
2019-03-29T07:38:00.669Z,10.40
2019-03-29T07:40:30.661Z,10.60
2019-03-29T07:43:00.367Z,10.50
2019-03-29T07:45:30.194Z,10.30
2019-03-29T07:47:59.674Z,10.40
2019-03-29T07:50:29.306Z,10.60
2019-03-29T07:52:58.793Z,10.70
2019-03-29T07:55:28.181Z,10.80
2019-03-29T07:57:57.649Z,10.60
2019-03-29T08:00:27.134Z,10.70
2019-03-29T08:02:56.665Z,10.80
2019-03-29T08:05:26.224Z,11.10
2019-03-29T08:07:55.706Z,11.10
2019-03-29T08:10:30.241Z,11.30
2019-03-29T08:12:56.718Z,11.40
2019-03-29T08:15:26.259Z,11.50
2019-03-29T08:17:55.867Z,11.60
2019-03-29T08:20:39.356Z,11.70
2019-03-29T08:22:56.759Z,11.80
2019-03-29T08:25:26.198Z,11.90
2019-03-29T08:27:55.843Z,11.90
2019-03-29T08:30:25.418Z,11.80
2019-03-29T08:32:54.836Z,11.90
2019-03-29T08:35:24.301Z,12.00
2019-03-29T08:37:53.761Z,12.00
2019-03-29T08:40:23.158Z,12.00
2019-03-29T08:42:52.622Z,12.10
2019-03-29T08:45:22.190Z,12.10
2019-03-29T08:47:51.649Z,12.20
2019-03-29T08:50:21.213Z,12.30
2019-03-29T08:52:51.018Z,12.30
2019-03-29T08:55:20.476Z,12.30
2019-03-29T08:57:49.881Z,12.50
2019-03-29T09:00:32.374Z,12.60
2019-03-29T09:03:02.203Z,12.50
2019-03-29T09:05:31.854Z,12.50
2019-03-29T09:08:01.454Z,12.60
2019-03-29T09:10:31.053Z,12.80
2019-03-29T09:13:04.049Z,12.90
2019-03-29T09:15:32.190Z,13.10
2019-03-29T09:18:01.913Z,13.30
2019-03-29T09:20:34.289Z,13.50
2019-03-29T09:23:03.086Z,13.50
2019-03-29T09:25:32.574Z,13.80
2019-03-29T09:28:02.113Z,13.80
2019-03-29T09:30:31.936Z,13.90
2019-03-29T09:33:01.445Z,14.00
2019-03-29T09:35:30.989Z,14.10
2019-03-29T09:38:00.811Z,14.10
2019-03-29T09:40:30.339Z,14.30
2019-03-29T09:43:07.265Z,14.40
2019-03-29T09:45:31.353Z,14.40
2019-03-29T09:48:00.951Z,14.30
2019-03-29T09:50:30.480Z,14.40
2019-03-29T09:53:01.338Z,14.30
2019-03-29T09:55:31.530Z,14.40
2019-03-29T09:58:01.362Z,14.50
2019-03-29T10:00:30.929Z,14.70
2019-03-29T10:03:00.406Z,15.00
2019-03-29T10:05:31.560Z,15.10
2019-03-29T10:08:01.411Z,15.20
2019-03-29T10:10:34.221Z,15.50
2019-03-29T10:13:02.372Z,15.70
2019-03-29T10:15:31.901Z,15.50
2019-03-29T10:18:01.382Z,15.60
2019-03-29T10:20:30.765Z,15.70
2019-03-29T10:23:00.898Z,15.60
2019-03-29T10:25:30.881Z,15.70
2019-03-29T10:28:00.814Z,15.60
2019-03-29T10:30:38.527Z,15.60
2019-03-29T10:33:08.105Z,15.90
2019-03-29T10:35:50.818Z,16.00
2019-03-29T10:38:08.929Z,16.40
2019-03-29T10:40:38.481Z,16.50
2019-03-29T10:43:08.289Z,16.80
2019-03-29T10:45:40.319Z,17.00
2019-03-29T10:48:09.022Z,17.00
2019-03-29T10:50:38.842Z,17.00
2019-03-29T10:53:08.377Z,17.10
2019-03-29T10:55:37.825Z,17.40
2019-03-29T10:58:09.642Z,17.60
2019-03-29T11:00:40.694Z,17.90
2019-03-29T11:03:10.422Z,18.00
2019-03-29T11:05:40.049Z,18.10
2019-03-29T11:08:11.803Z,18.10
2019-03-29T11:10:41.626Z,18.10
2019-03-29T11:13:13.899Z,18.40
2019-03-29T11:15:42.570Z,18.50
2019-03-29T11:18:12.495Z,18.60
2019-03-29T11:20:42.006Z,18.80
2019-03-29T11:23:11.557Z,18.50
2019-03-29T11:25:41.024Z,18.50
2019-03-29T11:28:10.510Z,18.90
2019-03-29T11:30:42.483Z,18.70
2019-03-29T11:33:11.334Z,18.80
2019-03-29T11:35:40.713Z,18.80
2019-03-29T11:38:10.202Z,19.00
2019-03-29T11:40:39.970Z,19.30
2019-03-29T11:43:09.789Z,19.40
2019-03-29T11:45:39.877Z,19.60
2019-03-29T11:48:09.834Z,19.70
2019-03-29T11:50:39.600Z,19.90
2019-03-29T11:53:09.175Z,19.50
2019-03-29T11:55:38.706Z,19.50
2019-03-29T11:58:08.177Z,19.70
2019-03-29T12:00:38.837Z,19.80
2019-03-29T12:03:09.437Z,19.90
2019-03-29T12:05:39.613Z,19.80
2019-03-29T12:08:09.510Z,20.10
2019-03-29T12:10:39.148Z,20.00
2019-03-29T12:13:09.829Z,19.90
2019-03-29T12:15:39.640Z,20.10
2019-03-29T12:18:09.336Z,20.30
2019-03-29T12:20:39.070Z,20.30
2019-03-29T12:23:08.632Z,20.70
2019-03-29T12:25:38.172Z,20.80
2019-03-29T12:28:07.741Z,20.10
2019-03-29T12:30:37.898Z,20.40
2019-03-29T12:33:07.344Z,20.20
2019-03-29T12:35:36.869Z,20.60
2019-03-29T12:38:06.334Z,21.10
2019-03-29T12:40:35.887Z,21.10
2019-03-29T12:43:05.442Z,21.20
2019-03-29T12:45:34.964Z,21.20
2019-03-29T12:48:04.519Z,21.20
2019-03-29T12:50:34.280Z,21.30
2019-03-29T12:53:03.809Z,21.20
2019-03-29T12:55:33.597Z,21.20
2019-03-29T12:58:03.155Z,21.20
2019-03-29T13:00:33.074Z,21.40
2019-03-29T13:03:02.538Z,21.80
2019-03-29T13:05:32.123Z,21.90
2019-03-29T13:08:01.626Z,21.90
2019-03-29T13:10:31.144Z,21.90
2019-03-29T13:13:01.034Z,21.50
2019-03-29T13:15:30.694Z,21.60
2019-03-29T13:18:00.752Z,21.80
2019-03-29T13:20:30.142Z,21.80
2019-03-29T13:22:59.683Z,21.80
2019-03-29T13:25:29.662Z,21.60
2019-03-29T13:27:59.709Z,21.70
2019-03-29T13:30:30.321Z,21.80
2019-03-29T13:32:59.862Z,22.00
2019-03-29T13:35:29.398Z,22.40
2019-03-29T13:37:59.217Z,22.60
2019-03-29T13:40:28.789Z,22.80
2019-03-29T13:42:58.346Z,22.50
2019-03-29T13:45:28.197Z,22.20
2019-03-29T13:47:57.937Z,22.30
2019-03-29T13:50:27.489Z,22.20
2019-03-29T13:52:57.601Z,22.30
2019-03-29T13:55:27.741Z,22.30
2019-03-29T13:57:57.565Z,22.30
2019-03-29T14:00:27.201Z,22.20
2019-03-29T14:02:56.653Z,21.90
2019-03-29T14:05:26.502Z,21.90
2019-03-29T14:07:55.890Z,21.90
2019-03-29T14:10:25.352Z,21.80
2019-03-29T14:12:54.882Z,22.10
2019-03-29T14:15:24.537Z,22.30
2019-03-29T14:17:54.029Z,22.40
2019-03-29T14:20:31.945Z,22.60
2019-03-29T14:23:02.616Z,22.60
2019-03-29T14:25:32.169Z,22.40
2019-03-29T14:28:01.634Z,22.40
2019-03-29T14:30:31.101Z,22.20
2019-03-29T14:33:00.854Z,22.30
2019-03-29T14:35:30.396Z,22.40
2019-03-29T14:37:59.769Z,22.50
2019-03-29T14:40:29.238Z,22.30
2019-03-29T14:42:58.704Z,22.60
2019-03-29T14:45:28.266Z,22.40
2019-03-29T14:47:58.276Z,22.30
2019-03-29T14:50:27.752Z,22.30
2019-03-29T14:52:57.259Z,22.40
2019-03-29T14:55:27.189Z,22.50
2019-03-29T14:57:56.673Z,22.40
2019-03-29T15:00:42.522Z,22.30
2019-03-29T15:03:12.969Z,22.10
2019-03-29T15:05:42.605Z,21.80
2019-03-29T15:08:12.160Z,21.80
2019-03-29T15:10:41.692Z,21.90
2019-03-29T15:13:11.634Z,21.90
2019-03-29T15:15:41.012Z,21.70
2019-03-29T15:18:10.558Z,21.60
2019-03-29T15:20:52.720Z,21.30
2019-03-29T15:23:11.540Z,21.20
2019-03-29T15:25:41.109Z,21.20
2019-03-29T15:28:10.567Z,21.10
2019-03-29T15:30:40.002Z,21.10
2019-03-29T15:33:09.941Z,20.70
2019-03-29T15:35:39.932Z,20.80
2019-03-29T15:38:09.478Z,20.50
2019-03-29T15:40:39.017Z,20.50
2019-03-29T15:43:09.052Z,20.50
2019-03-29T15:45:38.581Z,20.30
2019-03-29T15:48:08.133Z,20.00
2019-03-29T15:50:37.593Z,19.90
2019-03-29T15:53:07.057Z,19.80
2019-03-29T15:55:36.598Z,19.90
2019-03-29T15:58:06.190Z,20.00
2019-03-29T16:00:35.734Z,19.80
2019-03-29T16:03:05.606Z,19.70
2019-03-29T16:05:35.070Z,19.80
2019-03-29T16:08:04.634Z,19.70
2019-03-29T16:10:34.245Z,19.60
2019-03-29T16:13:04.044Z,19.50
2019-03-29T16:15:37.976Z,19.40
2019-03-29T16:18:04.641Z,19.30
2019-03-29T16:20:34.089Z,19.30
2019-03-29T16:23:03.566Z,19.30
2019-03-29T16:25:33.109Z,19.30
2019-03-29T16:28:02.664Z,19.40
2019-03-29T16:30:32.247Z,19.40
2019-03-29T16:33:01.670Z,19.30
2019-03-29T16:35:31.157Z,19.20
2019-03-29T16:38:00.933Z,19.20
2019-03-29T16:40:31.173Z,19.20
2019-03-29T16:43:01.048Z,18.90
2019-03-29T16:45:30.433Z,18.70
2019-03-29T16:48:00.081Z,18.70
2019-03-29T16:50:29.609Z,18.70
2019-03-29T16:52:59.077Z,18.60
2019-03-29T16:55:28.463Z,18.50
2019-03-29T16:57:58.198Z,18.20
2019-03-29T17:00:27.995Z,17.90
2019-03-29T17:02:57.466Z,17.90
2019-03-29T17:05:26.950Z,17.70
2019-03-29T17:07:56.346Z,17.50
2019-03-29T17:10:25.835Z,17.30
2019-03-29T17:12:55.365Z,17.10
2019-03-29T17:15:25.930Z,17.00
2019-03-29T17:17:55.336Z,16.80
2019-03-29T17:20:25.132Z,16.60
2019-03-29T17:22:55.081Z,16.50
2019-03-29T17:25:24.539Z,16.30
2019-03-29T17:27:54.285Z,16.30
2019-03-29T17:30:37.090Z,16.10
2019-03-29T17:33:06.481Z,16.00
2019-03-29T17:35:36.257Z,16.00
2019-03-29T17:38:05.968Z,15.90
2019-03-29T17:40:35.632Z,15.80
2019-03-29T17:43:05.189Z,15.60
2019-03-29T17:45:34.725Z,15.60
2019-03-29T17:48:04.189Z,15.50
2019-03-29T17:50:33.660Z,15.50
2019-03-29T17:53:03.223Z,15.40
2019-03-29T17:55:32.769Z,15.10
2019-03-29T17:58:02.389Z,15.10
2019-03-29T18:00:32.004Z,15.00
2019-03-29T18:03:01.402Z,15.00
2019-03-29T18:05:30.864Z,14.90
2019-03-29T18:08:00.253Z,15.00
2019-03-29T18:10:29.717Z,15.00
2019-03-29T18:12:59.195Z,14.90
2019-03-29T18:15:28.767Z,14.80
2019-03-29T18:17:58.305Z,14.60
2019-03-29T18:20:28.415Z,14.60
2019-03-29T18:22:57.945Z,14.50
2019-03-29T18:25:27.797Z,14.50
2019-03-29T18:27:57.365Z,14.50
2019-03-29T18:30:41.421Z,14.40
2019-03-29T18:33:11.385Z,14.30
2019-03-29T18:35:40.933Z,14.20
2019-03-29T18:38:10.567Z,14.10
2019-03-29T18:40:40.135Z,14.10
2019-03-29T18:43:09.961Z,14.00
2019-03-29T18:45:41.630Z,14.00
2019-03-29T18:48:11.155Z,13.90
2019-03-29T18:50:40.641Z,13.90
2019-03-29T18:53:10.478Z,13.70
2019-03-29T18:55:40.021Z,13.80
2019-03-29T18:58:09.838Z,13.70
2019-03-29T19:00:40.042Z,13.60
2019-03-29T19:03:11.875Z,13.50
2019-03-29T19:05:40.700Z,13.40
2019-03-29T19:08:10.546Z,13.20
2019-03-29T19:10:40.385Z,13.20
2019-03-29T19:13:09.846Z,13.20
2019-03-29T19:15:39.346Z,13.10
2019-03-29T19:18:08.918Z,13.10
2019-03-29T19:20:38.414Z,13.10
2019-03-29T19:23:08.229Z,13.10
2019-03-29T19:25:38.049Z,13.10
2019-03-29T19:28:07.750Z,13.00
2019-03-29T19:30:37.293Z,12.90
2019-03-29T19:33:06.825Z,12.90
2019-03-29T19:35:36.370Z,12.80
2019-03-29T19:38:05.902Z,12.80
2019-03-29T19:40:35.665Z,12.80
2019-03-29T19:43:05.195Z,12.70
2019-03-29T19:45:35.281Z,12.60
2019-03-29T19:48:04.834Z,12.60
2019-03-29T19:50:34.430Z,12.50
2019-03-29T19:53:04.006Z,12.40
2019-03-29T19:55:33.605Z,12.20
2019-03-29T19:58:03.256Z,12.20
2019-03-29T20:00:43.530Z,12.10
2019-03-29T20:03:13.208Z,12.30
2019-03-29T20:05:42.682Z,12.30
2019-03-29T20:08:12.154Z,12.30
2019-03-29T20:10:41.797Z,12.20
2019-03-29T20:13:11.336Z,12.10
2019-03-29T20:15:40.802Z,12.20
2019-03-29T20:18:10.360Z,12.10
2019-03-29T20:20:39.950Z,12.10
2019-03-29T20:23:09.424Z,11.90
2019-03-29T20:25:38.968Z,11.70
2019-03-29T20:28:08.497Z,11.80
2019-03-29T20:30:38.033Z,11.70
2019-03-29T20:33:07.573Z,11.50
2019-03-29T20:35:37.422Z,11.70
2019-03-29T20:38:06.982Z,11.80
2019-03-29T20:40:36.796Z,11.90
2019-03-29T20:43:06.254Z,11.80
2019-03-29T20:45:35.802Z,11.70
2019-03-29T20:48:05.354Z,11.40
2019-03-29T20:50:35.185Z,11.30
2019-03-29T20:53:04.747Z,11.20
2019-03-29T20:55:34.306Z,11.20
2019-03-29T20:58:03.868Z,11.40
2019-03-29T21:00:33.337Z,11.40
2019-03-29T21:03:02.780Z,11.30
2019-03-29T21:05:32.337Z,11.10
2019-03-29T21:08:01.814Z,11.10
2019-03-29T21:10:31.201Z,11.00
2019-03-29T21:13:01.448Z,11.10
2019-03-29T21:15:31.670Z,11.00
2019-03-29T21:18:01.209Z,10.90
2019-03-29T21:20:30.698Z,10.80
2019-03-29T21:23:00.159Z,10.60
2019-03-29T21:25:29.578Z,10.60
2019-03-29T21:27:59.073Z,10.60
2019-03-29T21:30:28.562Z,10.60
2019-03-29T21:32:57.932Z,10.70
2019-03-29T21:35:27.418Z,10.50
2019-03-29T21:37:56.951Z,10.50
2019-03-29T21:40:26.406Z,10.40
2019-03-29T21:42:57.277Z,10.30
2019-03-29T21:45:29.066Z,10.40
2019-03-29T21:48:10.013Z,10.40
2019-03-29T21:50:30.116Z,10.40
2019-03-29T21:52:59.857Z,10.40
2019-03-29T21:55:29.804Z,10.30
2019-03-29T21:57:59.204Z,10.40
2019-03-29T22:00:28.699Z,10.30
2019-03-29T22:02:58.271Z,10.00
2019-03-29T22:05:28.125Z,10.00
2019-03-29T22:07:57.669Z,10.10
2019-03-29T22:10:27.317Z,10.30
2019-03-29T22:12:56.726Z,10.40
2019-03-29T22:15:26.177Z,10.20
2019-03-29T22:17:55.641Z,10.00
2019-03-29T22:20:25.386Z,10.00
2019-03-29T22:22:54.863Z,10.10
2019-03-29T22:25:24.321Z,10.10
2019-03-29T22:27:53.793Z,10.00
2019-03-29T22:30:23.720Z,9.80
2019-03-29T22:32:53.105Z,9.80
2019-03-29T22:35:22.575Z,9.70
2019-03-29T22:37:51.994Z,9.70
2019-03-29T22:40:21.547Z,9.60
2019-03-29T22:42:51.176Z,9.60
2019-03-29T22:45:20.629Z,9.60
2019-03-29T22:47:50.261Z,9.60
2019-03-29T22:50:19.790Z,9.70
2019-03-29T22:52:49.261Z,9.60
2019-03-29T22:55:18.633Z,9.60
2019-03-29T22:57:48.100Z,9.50
2019-03-29T23:00:27.994Z,9.50
2019-03-29T23:02:57.559Z,9.50
2019-03-29T23:05:27.102Z,9.40
2019-03-29T23:07:56.686Z,9.40
2019-03-29T23:10:26.232Z,9.40
2019-03-29T23:12:55.777Z,9.30
2019-03-29T23:15:25.988Z,9.30
2019-03-29T23:17:55.440Z,9.30
2019-03-29T23:20:25.521Z,9.40
2019-03-29T23:22:55.224Z,9.30
2019-03-29T23:25:24.752Z,9.20
2019-03-29T23:27:54.340Z,9.10
2019-03-29T23:30:24.181Z,9.10
2019-03-29T23:32:53.651Z,9.30
2019-03-29T23:35:23.034Z,9.30
2019-03-29T23:37:52.515Z,9.20
2019-03-29T23:40:21.981Z,9.00
2019-03-29T23:42:51.450Z,9.10
2019-03-29T23:45:21.264Z,9.00
2019-03-29T23:47:50.891Z,9.10
2019-03-29T23:50:20.678Z,9.10
2019-03-29T23:52:50.061Z,9.00
2019-03-29T23:55:19.598Z,8.90
2019-03-29T23:57:49.089Z,8.80
